Time;durP1;ratioP1;P1;durP2;ratioP2;P2;SDS_P1;SDS_P2;PMS_P1;PMS_P2;Temp;Humidity;BMP_temperature;BMP_pressure;BME280_temperature;BME280_humidity;BME280_pressure;Samples;Min_cycle;Max_cycle;Signal;HPM_P1;HPM_P2
2023/12/20 00:01:06;;;;;;;25.40;2.90;;;8.70;99.90;;;;;;4984248;28;35520;-80
2023/12/20 00:03:32;;;;;;;17.60;2.80;;;8.70;99.90;;;;;;4987302;28;38194;-80
2023/12/20 00:05:58;;;;;;;13.43;2.77;;;8.80;99.90;;;;;;4991163;28;39228;-80
2023/12/20 00:08:25;;;;;;;15.77;3.33;;;8.80;99.90;;;;;;4988323;28;38140;-79
2023/12/20 00:10:51;;;;;;;23.57;2.97;;;8.80;99.90;;;;;;4990933;28;36189;-80
2023/12/20 00:13:17;;;;;;;14.60;2.60;;;8.80;99.90;;;;;;4988531;28;37555;-79
2023/12/20 00:15:43;;;;;;;20.83;3.70;;;8.80;99.90;;;;;;4991943;28;37380;-80
2023/12/20 00:18:09;;;;;;;14.00;3.50;;;8.70;99.90;;;;;;4987521;28;37999;-79
2023/12/20 00:20:35;;;;;;;15.73;2.70;;;8.60;99.90;;;;;;4991559;28;37406;-79
2023/12/20 00:23:02;;;;;;;20.23;3.23;;;8.60;99.90;;;;;;4993342;28;38319;-80
2023/12/20 00:25:29;;;;;;;20.17;3.03;;;8.50;99.90;;;;;;4993232;28;38600;-80
2023/12/20 00:27:55;;;;;;;17.93;2.83;;;8.50;99.90;;;;;;5006788;28;38726;-80
2023/12/20 00:30:21;;;;;;;19.10;3.53;;;8.50;99.90;;;;;;5003906;28;35924;-79
2023/12/20 00:32:47;;;;;;;27.43;3.97;;;8.50;99.90;;;;;;5001629;28;37876;-80
2023/12/20 00:35:14;;;;;;;22.77;3.47;;;8.50;99.90;;;;;;5013863;28;37659;-79
2023/12/20 00:37:40;;;;;;;26.47;3.73;;;8.50;99.90;;;;;;5005473;28;36498;-80
2023/12/20 00:40:07;;;;;;;21.23;3.40;;;8.50;99.90;;;;;;5003520;28;37290;-80
2023/12/20 00:42:33;;;;;;;27.30;3.47;;;8.40;99.90;;;;;;4999398;28;37686;-80
2023/12/20 00:45:00;;;;;;;16.67;2.90;;;8.40;99.90;;;;;;4998166;28;38249;-79
2023/12/20 00:47:26;;;;;;;20.67;3.90;;;8.50;99.90;;;;;;4996700;28;36738;-79
2023/12/20 00:49:52;;;;;;;19.50;3.17;;;8.40;99.90;;;;;;4994911;28;36291;-79
2023/12/20 00:52:18;;;;;;;19.37;3.40;;;8.50;99.90;;;;;;4993133;28;39147;-80
2023/12/20 00:54:45;;;;;;;23.67;3.70;;;8.50;99.90;;;;;;4991935;28;37306;-80
2023/12/20 00:57:11;;;;;;;18.03;3.40;;;8.50;99.90;;;;;;5004993;28;37466;-80
2023/12/20 00:59:37;;;;;;;19.10;3.87;;;8.40;99.90;;;;;;4990461;28;36168;-79
2023/12/20 01:02:04;;;;;;;23.00;3.67;;;8.40;99.90;;;;;;4988778;28;38763;-79
2023/12/20 01:04:30;;;;;;;28.87;4.20;;;8.40;99.90;;;;;;4992392;28;38416;-79
2023/12/20 01:06:56;;;;;;;20.33;3.70;;;8.50;99.90;;;;;;4990921;28;37935;-79
2023/12/20 01:09:26;;;;;;;24.63;4.20;;;8.50;99.90;;;;;;4990481;28;37633;-80
2023/12/20 01:11:53;;;;;;;22.37;3.73;;;8.50;99.90;;;;;;4990288;28;38872;-80
2023/12/20 01:14:19;;;;;;;16.93;3.00;;;8.60;99.90;;;;;;4991655;28;39231;-79
2023/12/20 01:16:45;;;;;;;26.27;4.30;;;8.70;99.90;;;;;;4992881;28;39258;-79
2023/12/20 01:19:13;;;;;;;24.77;4.67;;;8.80;99.90;;;;;;4992111;28;35996;-79
2023/12/20 01:21:40;;;;;;;15.73;3.20;;;8.90;99.90;;;;;;4988621;28;37688;-79
2023/12/20 01:24:06;;;;;;;15.83;2.93;;;9.00;99.90;;;;;;5004479;28;38617;-79
2023/12/20 01:26:32;;;;;;;18.13;4.47;;;9.00;99.90;;;;;;4988991;28;37273;-79
2023/12/20 01:28:58;;;;;;;20.10;3.87;;;9.10;99.90;;;;;;4984311;28;36160;-79
2023/12/20 01:31:24;;;;;;;19.30;3.80;;;9.10;99.90;;;;;;4987275;28;39608;-79
2023/12/20 01:33:50;;;;;;;16.73;2.97;;;9.10;99.90;;;;;;4987954;28;37389;-79
2023/12/20 01:36:16;;;;;;;11.90;2.73;;;9.10;99.90;;;;;;4988365;28;36938;-79
2023/12/20 01:38:43;;;;;;;19.60;3.93;;;9.20;99.90;;;;;;4985674;28;37058;-79
2023/12/20 01:41:09;;;;;;;23.73;3.47;;;9.20;99.90;;;;;;4988908;28;37673;-80
2023/12/20 01:43:35;;;;;;;21.67;3.63;;;9.20;99.90;;;;;;4989604;28;38925;-79
2023/12/20 01:46:03;;;;;;;22.73;3.47;;;9.20;99.90;;;;;;4989025;28;37972;-79
2023/12/20 01:48:32;;;;;;;22.23;3.20;;;9.20;99.90;;;;;;4986663;28;36360;-79
2023/12/20 01:51:00;;;;;;;25.47;4.17;;;9.20;99.90;;;;;;4988610;28;37801;-80
2023/12/20 01:53:27;;;;;;;20.73;3.87;;;9.20;99.90;;;;;;4986058;28;38430;-79
2023/12/20 01:55:56;;;;;;;23.57;4.00;;;9.20;99.90;;;;;;5007888;28;37835;-79
2023/12/20 01:58:23;;;;;;;31.33;4.00;;;9.10;99.90;;;;;;4992750;28;38153;-79
2023/12/20 02:03:33;;;;;;;19.90;3.17;;;9.00;99.90;;;;;;5273391;23;20038;-82
2023/12/20 02:06:00;;;;;;;24.77;4.53;;;9.00;99.90;;;;;;5009199;28;39481;-82
2023/12/20 02:08:37;;;;;;;22.80;3.97;;;9.00;99.90;;;;;;4992518;28;36186;-82
2023/12/20 02:11:17;;;;;;;24.80;3.33;;;9.10;99.90;;;;;;4964166;28;38196;-81
2023/12/20 02:13:53;;;;;;;22.30;3.60;;;9.00;99.90;;;;;;4980575;28;39908;-82
2023/12/20 02:16:23;;;;;;;16.97;3.30;;;9.10;99.90;;;;;;5001527;28;38011;-82
2023/12/20 02:19:02;;;;;;;20.00;3.83;;;9.10;99.90;;;;;;4986252;28;37565;-82
2023/12/20 02:21:36;;;;;;;18.27;3.10;;;9.10;99.90;;;;;;4967036;28;48591;-82
2023/12/20 02:24:10;;;;;;;22.03;3.13;;;9.10;99.90;;;;;;4982374;28;40019;-83
2023/12/20 02:27:00;;;;;;;17.20;3.60;;;9.10;99.90;;;;;;4974269;28;38776;-82
2023/12/20 02:29:42;;;;;;;23.83;3.67;;;9.10;99.90;;;;;;4979571;28;50112;-82
2023/12/20 02:32:13;;;;;;;28.70;4.03;;;9.10;99.90;;;;;;4978594;28;39236;-82
2023/12/20 02:35:01;;;;;;;21.77;4.60;;;9.20;99.90;;;;;;4984998;28;36733;-81
2023/12/20 02:37:27;;;;;;;23.23;3.37;;;9.20;99.90;;;;;;4982240;28;38573;-83
2023/12/20 02:40:33;;;;;;;19.90;3.37;;;9.20;99.90;;;;;;5000084;28;38769;-82
2023/12/20 02:43:10;;;;;;;25.57;4.43;;;9.10;99.90;;;;;;4976259;28;49547;-82
2023/12/20 02:45:37;;;;;;;25.47;3.57;;;9.10;99.90;;;;;;4987748;28;50331;-82
2023/12/20 02:48:14;;;;;;;18.50;3.10;;;9.10;99.90;;;;;;5004809;28;37361;-82
2023/12/20 02:50:48;;;;;;;24.40;3.70;;;9.10;99.90;;;;;;4955612;28;37324;-82
2023/12/20 02:53:22;;;;;;;23.57;4.03;;;9.00;99.90;;;;;;4941707;28;40046;-82
2023/12/20 02:55:52;;;;;;;26.15;4.70;;;9.00;99.90;;;;;;4944915;28;37878;-82
2023/12/20 02:58:22;;;;;;;18.33;3.95;;;9.00;99.90;;;;;;4910486;28;38540;-82
2023/12/20 03:01:09;;;;;;;20.77;3.87;;;8.90;99.90;;;;;;4924863;28;37684;-82
2023/12/20 03:03:44;;;;;;;20.93;4.90;;;8.90;99.90;;;;;;4939789;29;39523;-82
2023/12/20 03:06:25;;;;;;;18.77;3.60;;;8.90;99.90;;;;;;4915832;28;39241;-82
2023/12/20 03:09:14;;;;;;;23.17;3.30;;;9.00;99.90;;;;;;4950907;29;39564;-82
2023/12/20 03:12:04;;;;;;;22.80;3.93;;;9.00;99.90;;;;;;4968901;28;49382;-82
2023/12/20 03:14:33;;;;;;;28.40;4.00;;;9.00;99.90;;;;;;4937419;28;48607;-82
2023/12/20 03:17:02;;;;;;;19.90;4.20;;;9.00;99.90;;;;;;4951545;28;38105;-82
2023/12/20 03:19:29;;;;;;;25.37;3.83;;;9.00;99.90;;;;;;4959647;28;49822;-81
2023/12/20 03:21:55;;;;;;;29.90;4.23;;;9.00;99.90;;;;;;4967420;28;35846;-81
2023/12/20 03:24:22;;;;;;;24.37;4.17;;;9.00;99.90;;;;;;4990847;28;39410;-82
2023/12/20 03:26:48;;;;;;;21.27;3.73;;;9.00;99.90;;;;;;5007802;28;37652;-81
2023/12/20 03:29:14;;;;;;;25.13;4.77;;;9.00;99.90;;;;;;4991489;28;37392;-82
2023/12/20 03:31:42;;;;;;;18.90;3.33;;;9.00;99.90;;;;;;5001888;28;37830;-82
2023/12/20 03:34:11;;;;;;;21.77;4.20;;;9.00;99.90;;;;;;4986232;28;38351;-82
2023/12/20 03:36:39;;;;;;;16.80;3.07;;;9.00;99.90;;;;;;4992871;28;38406;-82
2023/12/20 03:39:05;;;;;;;21.87;3.97;;;9.00;99.90;;;;;;5005972;28;37133;-82
2023/12/20 03:41:31;;;;;;;20.87;4.23;;;9.00;99.90;;;;;;4993307;28;37768;-82
2023/12/20 03:43:59;;;;;;;21.97;4.10;;;9.00;99.90;;;;;;5014334;28;38013;-82
2023/12/20 03:46:26;;;;;;;26.27;4.13;;;8.90;99.90;;;;;;4996200;28;37812;-82
2023/12/20 03:48:52;;;;;;;23.33;3.60;;;8.80;99.90;;;;;;5013529;28;39680;-82
2023/12/20 03:51:18;;;;;;;22.70;4.37;;;8.80;99.90;;;;;;4998719;28;36589;-81
2023/12/20 03:53:45;;;;;;;17.10;3.23;;;8.70;99.90;;;;;;4994731;28;38131;-82
2023/12/20 03:56:12;;;;;;;26.97;4.47;;;8.70;99.90;;;;;;5011349;28;38941;-82
2023/12/20 03:58:38;;;;;;;19.27;3.50;;;8.60;99.90;;;;;;4986850;28;38309;-82
2023/12/20 04:01:11;;;;;;;27.13;3.80;;;8.50;99.90;;;;;;4984122;28;37688;-81
2023/12/20 04:03:38;;;;;;;;;;;8.50;99.90;;;;;;4984972;28;39598;-82
2023/12/20 04:06:04;;;;;;;20.93;4.40;;;8.40;99.90;;;;;;5003807;28;38202;-82
2023/12/20 04:08:32;;;;;;;24.97;4.63;;;8.40;99.90;;;;;;4990618;28;37109;-82
2023/12/20 04:10:59;;;;;;;29.57;3.73;;;8.40;99.90;;;;;;5004970;28;38244;-82
2023/12/20 04:13:26;;;;;;;23.10;3.53;;;8.40;99.90;;;;;;4994287;28;37992;-82
2023/12/20 04:15:53;;;;;;;27.23;4.17;;;8.40;99.90;;;;;;4978603;28;38552;-82
2023/12/20 04:18:19;;;;;;;20.60;3.60;;;8.40;99.90;;;;;;4989486;28;39058;-81
2023/12/20 04:20:47;;;;;;;25.77;4.00;;;8.50;99.90;;;;;;4992713;28;36987;-82
2023/12/20 04:23:14;;;;;;;22.20;3.77;;;8.50;99.90;;;;;;4989232;28;41054;-82
2023/12/20 04:25:40;;;;;;;23.13;3.90;;;8.40;99.90;;;;;;4990260;28;37783;-81
2023/12/20 04:28:07;;;;;;;24.00;3.57;;;8.40;99.90;;;;;;4989378;28;37622;-82
2023/12/20 04:30:35;;;;;;;30.50;3.87;;;8.40;99.90;;;;;;4969622;28;36465;-82
2023/12/20 04:33:04;;;;;;;34.30;4.60;;;8.40;99.90;;;;;;4968940;28;37868;-82
2023/12/20 04:35:30;;;;;;;40.73;5.40;;;8.30;99.90;;;;;;4990822;28;48087;-82
2023/12/20 04:37:57;;;;;;;24.27;4.27;;;8.40;99.90;;;;;;5008254;28;38460;-82
2023/12/20 04:40:25;;;;;;;30.30;4.33;;;8.30;99.90;;;;;;4993981;28;38604;-82
2023/12/20 04:42:52;;;;;;;26.13;3.77;;;8.40;99.90;;;;;;4989933;28;37433;-81
2023/12/20 04:45:19;;;;;;;26.37;3.33;;;8.40;99.90;;;;;;4991701;28;37535;-82
2023/12/20 04:47:47;;;;;;;26.27;5.03;;;8.30;99.90;;;;;;4985072;28;39025;-82
2023/12/20 04:50:15;;;;;;;25.07;3.70;;;8.40;99.90;;;;;;5000172;28;36722;-82
2023/12/20 04:52:53;;;;;;;21.57;4.00;;;8.30;99.90;;;;;;4971868;28;37678;-82
2023/12/20 04:55:20;;;;;;;24.00;3.73;;;8.30;99.90;;;;;;4990809;28;37642;-81
2023/12/20 04:57:48;;;;;;;23.17;3.93;;;8.30;99.90;;;;;;4987340;28;37270;-82
2023/12/20 05:00:17;;;;;;;31.23;4.63;;;8.20;99.90;;;;;;4986599;28;38024;-82
2023/12/20 05:02:44;;;;;;;24.50;3.33;;;8.20;99.90;;;;;;4982965;28;39494;-82
2023/12/20 05:05:14;;;;;;;28.80;4.00;;;8.30;99.90;;;;;;5013376;28;39363;-82
2023/12/20 05:07:41;;;;;;;22.50;3.33;;;8.30;99.90;;;;;;4963793;28;39828;-82
2023/12/20 05:10:08;;;;;;;25.27;3.33;;;8.30;99.90;;;;;;4996198;28;37244;-81
2023/12/20 05:12:39;;;;;;;21.50;3.80;;;8.20;99.90;;;;;;4991757;28;39019;-82
2023/12/20 05:15:08;;;;;;;17.47;3.90;;;8.20;99.90;;;;;;4979097;28;36030;-82
2023/12/20 05:17:34;;;;;;;22.50;3.60;;;8.20;99.90;;;;;;4982952;28;39565;-82
2023/12/20 05:20:01;;;;;;;22.70;3.70;;;8.20;99.90;;;;;;5006215;28;37711;-81
2023/12/20 05:22:28;;;;;;;26.40;3.67;;;8.20;99.90;;;;;;5005322;28;38480;-82
2023/12/20 05:24:58;;;;;;;24.73;4.20;;;8.20;99.90;;;;;;4989983;28;39242;-82
2023/12/20 05:27:25;;;;;;;27.53;5.20;;;8.20;99.90;;;;;;5006645;28;38764;-82
2023/12/20 05:29:57;;;;;;;22.70;3.63;;;8.20;99.90;;;;;;4998498;28;36948;-82
2023/12/20 05:32:26;;;;;;;21.70;3.87;;;8.20;99.90;;;;;;5000204;28;39265;-82
2023/12/20 05:34:53;;;;;;;20.50;4.07;;;8.20;99.90;;;;;;5010839;28;38325;-82
2023/12/20 05:37:21;;;;;;;24.87;4.10;;;8.20;99.90;;;;;;4986698;28;37146;-81
2023/12/20 05:39:49;;;;;;;27.63;4.00;;;8.20;99.90;;;;;;4986432;28;36714;-82
2023/12/20 05:42:15;;;;;;;34.50;4.87;;;8.20;99.90;;;;;;4984909;28;38175;-82
2023/12/20 05:44:43;;;;;;;24.87;3.60;;;8.20;99.90;;;;;;4970269;28;37718;-82
2023/12/20 05:47:14;;;;;;;29.83;4.43;;;8.20;99.90;;;;;;4992523;28;39237;-81
2023/12/20 05:49:41;;;;;;;32.30;5.10;;;8.30;99.90;;;;;;4997528;28;37310;-81
2023/12/20 05:52:24;;;;;;;;;;;;;;;;;;;;;
2023/12/20 05:55:30;;;;;;;27.47;4.00;;;8.30;99.90;;;;;;5005346;28;39130;-84
2023/12/20 05:58:04;;;;;;;28.33;3.87;;;8.30;99.90;;;;;;4919179;28;49078;-82
2023/12/20 06:00:37;;;;;;;34.50;4.70;;;8.40;99.90;;;;;;4911388;28;48001;-82
2023/12/20 06:03:04;;;;;;;20.80;4.20;;;8.30;99.90;;;;;;4981098;28;39510;-82
2023/12/20 06:05:33;;;;;;;24.50;3.87;;;8.30;99.90;;;;;;4995963;28;38797;-83
2023/12/20 06:11:20;;;;;;;30.77;4.63;;;8.40;99.90;;;;;;4881111;29;49541;-83
2023/12/20 06:13:47;;;;;;;38.83;4.93;;;8.30;99.90;;;;;;4959735;28;38533;-81
2023/12/20 06:16:13;;;;;;;21.27;3.80;;;8.30;99.90;;;;;;4984004;28;39341;-81
2023/12/20 06:18:39;;;;;;;34.43;4.03;;;8.40;99.90;;;;;;4996808;28;38758;-82
2023/12/20 06:21:07;;;;;;;21.20;3.37;;;8.50;99.90;;;;;;4992354;28;37411;-82
2023/12/20 06:24:02;;;;;;;29.60;3.87;;;8.60;99.90;;;;;;4994904;28;39554;-83
2023/12/20 06:26:28;;;;;;;21.53;3.57;;;8.60;99.90;;;;;;5006336;28;48719;-84
2023/12/20 06:28:55;;;;;;;25.47;4.63;;;8.70;99.90;;;;;;4989882;28;37118;-78
2023/12/20 06:31:21;;;;;;;20.43;3.10;;;8.80;99.90;;;;;;4972008;28;37484;-79
2023/12/20 06:33:49;;;;;;;22.47;4.57;;;8.80;99.90;;;;;;4978343;28;37966;-81
2023/12/20 06:36:15;;;;;;;28.47;3.67;;;8.90;99.90;;;;;;5000537;28;39308;-79
2023/12/20 06:38:44;;;;;;;33.10;4.60;;;8.90;99.90;;;;;;4975676;28;39467;-80
2023/12/20 06:41:14;;;;;;;25.83;3.67;;;8.90;99.90;;;;;;4971922;28;37062;-81
2023/12/20 06:43:40;;;;;;;27.40;4.70;;;8.90;99.90;;;;;;4991269;28;38833;-80
2023/12/20 06:46:06;;;;;;;30.17;3.67;;;9.00;99.90;;;;;;4993689;28;38303;-80
2023/12/20 06:48:33;;;;;;;21.57;3.93;;;9.00;99.90;;;;;;4992385;28;37252;-79
2023/12/20 06:51:02;;;;;;;19.33;4.27;;;9.00;99.90;;;;;;4969858;28;35967;-79
2023/12/20 06:53:28;;;;;;;35.43;4.83;;;8.90;99.90;;;;;;4984126;28;48354;-79
2023/12/20 06:55:56;;;;;;;14.50;3.23;;;8.90;99.90;;;;;;4988536;28;38201;-79
2023/12/20 06:58:22;;;;;;;29.93;5.30;;;8.80;99.90;;;;;;4976728;28;37809;-78
2023/12/20 07:00:51;;;;;;;26.53;3.90;;;8.80;99.90;;;;;;4987884;28;36916;-79
2023/12/20 07:03:17;;;;;;;34.23;4.50;;;8.80;99.90;;;;;;4983658;28;38063;-78
2023/12/20 07:05:44;;;;;;;24.43;3.73;;;8.70;99.90;;;;;;4982938;28;38242;-79
2023/12/20 07:08:10;;;;;;;19.87;3.07;;;8.70;99.90;;;;;;4986447;28;39568;-79
2023/12/20 07:10:37;;;;;;;25.20;3.93;;;8.60;99.90;;;;;;4975521;28;36240;-78
2023/12/20 07:13:06;;;;;;;22.70;4.23;;;8.60;99.90;;;;;;4979199;28;37610;-80
2023/12/20 07:15:32;;;;;;;25.00;4.00;;;8.60;99.90;;;;;;4970305;28;39882;-78
2023/12/20 07:18:00;;;;;;;28.40;5.27;;;8.60;99.90;;;;;;4990334;28;37885;-78
2023/12/20 07:20:29;;;;;;;18.53;3.43;;;8.70;99.90;;;;;;4973473;28;35998;-78
2023/12/20 07:22:55;;;;;;;21.33;3.80;;;8.70;99.90;;;;;;4987129;28;38712;-79
2023/12/20 07:25:21;;;;;;;25.67;4.00;;;8.70;99.90;;;;;;4973761;28;38428;-80
2023/12/20 07:27:48;;;;;;;22.80;3.83;;;8.70;99.90;;;;;;4949773;28;41212;-78
2023/12/20 07:30:14;;;;;;;22.57;4.30;;;8.70;99.90;;;;;;4951228;28;37741;-80
2023/12/20 07:32:40;;;;;;;22.80;4.13;;;8.70;99.90;;;;;;4955576;28;39683;-80
2023/12/20 07:35:06;;;;;;;31.07;4.70;;;8.60;99.90;;;;;;4971887;28;38560;-80
2023/12/20 07:37:33;;;;;;;29.07;4.97;;;8.60;99.90;;;;;;4954833;28;38101;-79
2023/12/20 07:39:59;;;;;;;25.93;3.83;;;8.60;99.90;;;;;;4974933;28;36860;-80
2023/12/20 07:42:25;;;;;;;21.00;3.47;;;8.50;99.90;;;;;;4955644;28;38610;-80
2023/12/20 07:44:52;;;;;;;27.97;3.77;;;8.60;99.90;;;;;;4978882;28;39179;-79
2023/12/20 07:47:21;;;;;;;23.67;3.70;;;8.50;99.90;;;;;;4957830;28;37161;-80
2023/12/20 07:49:51;;;;;;;22.33;3.57;;;8.60;99.90;;;;;;4956584;28;37177;-78
2023/12/20 07:52:18;;;;;;;30.13;4.63;;;8.60;99.90;;;;;;4972387;28;37652;-79
2023/12/20 07:54:45;;;;;;;23.30;3.77;;;8.60;99.90;;;;;;4953523;28;37362;-79
2023/12/20 07:57:12;;;;;;;20.63;3.60;;;8.60;99.90;;;;;;4958866;28;39218;-78
2023/12/20 07:59:38;;;;;;;30.60;4.00;;;8.60;99.90;;;;;;4954818;28;36024;-79
2023/12/20 08:02:04;;;;;;;32.57;4.57;;;8.60;99.90;;;;;;4952042;28;39450;-79
2023/12/20 08:04:30;;;;;;;24.57;3.97;;;8.60;99.90;;;;;;4952025;28;38193;-79
2023/12/20 08:06:56;;;;;;;23.67;4.10;;;8.70;99.90;;;;;;4971165;28;37876;-78
2023/12/20 08:09:22;;;;;;;25.17;3.87;;;8.80;99.90;;;;;;4951814;28;37323;-78
2023/12/20 08:11:49;;;;;;;27.37;3.97;;;8.70;99.90;;;;;;4973840;28;38056;-79
2023/12/20 08:14:15;;;;;;;29.97;4.10;;;8.70;99.90;;;;;;4980124;28;36961;-79
2023/12/20 08:16:42;;;;;;;28.37;5.07;;;8.70;99.90;;;;;;4970704;28;37767;-78
2023/12/20 08:19:08;;;;;;;30.70;5.23;;;8.80;99.90;;;;;;4974095;28;36594;-79
2023/12/20 08:21:34;;;;;;;29.00;4.80;;;8.90;99.90;;;;;;4957676;28;38705;-78
2023/12/20 08:24:00;;;;;;;27.17;4.43;;;8.90;99.90;;;;;;4960680;28;38949;-79
2023/12/20 08:26:26;;;;;;;24.10;3.97;;;8.90;99.90;;;;;;4976518;28;37421;-77
2023/12/20 08:28:53;;;;;;;38.30;4.47;;;9.00;99.90;;;;;;4975345;28;37193;-79
2023/12/20 08:31:19;;;;;;;27.63;4.43;;;9.00;99.90;;;;;;4976808;28;38286;-78
2023/12/20 08:33:47;;;;;;;27.80;4.20;;;9.10;99.90;;;;;;4958522;28;37202;-78
2023/12/20 08:36:13;;;;;;;20.60;3.73;;;9.10;99.90;;;;;;4959312;28;36663;-78
2023/12/20 08:38:39;;;;;;;17.43;3.60;;;9.20;99.90;;;;;;4958494;28;35414;-78
2023/12/20 08:41:06;;;;;;;26.80;3.83;;;9.20;99.90;;;;;;4959008;28;38756;-78
2023/12/20 08:43:33;;;;;;;25.03;3.60;;;9.20;99.90;;;;;;4976944;28;38465;-78
2023/12/20 08:46:00;;;;;;;27.30;4.33;;;9.30;99.90;;;;;;4957135;28;37870;-78
2023/12/20 08:48:28;;;;;;;34.20;4.80;;;9.50;99.90;;;;;;4954329;28;36277;-78
2023/12/20 08:50:54;;;;;;;21.87;3.37;;;9.50;99.90;;;;;;4971934;28;39837;-78
2023/12/20 08:53:21;;;;;;;24.37;3.77;;;9.60;99.90;;;;;;4972823;28;38207;-78
2023/12/20 08:55:47;;;;;;;21.07;4.23;;;9.60;99.90;;;;;;4968905;28;39357;-78
2023/12/20 08:58:14;;;;;;;19.10;3.63;;;9.70;99.90;;;;;;4970163;28;36346;-78
2023/12/20 09:00:40;;;;;;;20.83;3.60;;;9.70;99.90;;;;;;4969903;28;38312;-78
2023/12/20 09:03:06;;;;;;;24.73;3.50;;;9.70;99.90;;;;;;4971421;28;39161;-78
2023/12/20 09:05:32;;;;;;;19.43;3.30;;;9.70;99.90;;;;;;4952518;28;37202;-78
2023/12/20 09:07:58;;;;;;;18.97;3.90;;;9.80;99.90;;;;;;4958319;28;36043;-78
2023/12/20 09:10:25;;;;;;;20.90;3.80;;;9.80;99.90;;;;;;4952926;28;39616;-78
2023/12/20 09:12:59;;;;;;;27.13;3.47;;;9.80;99.90;;;;;;4972256;28;38734;-78
2023/12/20 09:15:26;;;;;;;27.87;5.60;;;9.80;99.90;;;;;;4968940;28;37763;-78
2023/12/20 09:17:52;;;;;;;27.57;4.57;;;9.90;99.90;;;;;;4953322;28;36738;-78
2023/12/20 09:20:19;;;;;;;20.87;3.33;;;9.90;99.90;;;;;;4951107;28;39635;-78
2023/12/20 09:22:45;;;;;;;17.77;4.00;;;9.90;99.90;;;;;;4956685;28;38168;-78
2023/12/20 09:25:13;;;;;;;20.57;3.67;;;9.90;99.90;;;;;;4975821;28;38123;-78
2023/12/20 09:27:39;;;;;;;19.53;3.47;;;9.90;99.90;;;;;;4974136;28;37609;-78
2023/12/20 09:30:06;;;;;;;19.30;3.93;;;9.90;99.90;;;;;;4972004;28;38642;-78
2023/12/20 09:32:32;;;;;;;28.73;4.27;;;9.90;99.90;;;;;;4955558;28;37624;-78
2023/12/20 09:34:58;;;;;;;28.40;4.27;;;9.90;99.90;;;;;;4975707;28;39811;-78
2023/12/20 09:37:27;;;;;;;22.47;4.17;;;9.90;99.90;;;;;;4952715;28;35620;-78
2023/12/20 09:39:54;;;;;;;22.77;3.60;;;9.90;99.90;;;;;;4955250;28;38968;-78
2023/12/20 09:42:42;;;;;;;24.83;4.00;;;10.00;99.90;;;;;;4977713;28;38208;-78
2023/12/20 09:45:12;;;;;;;25.33;3.73;;;9.90;99.90;;;;;;4974664;28;38189;-78
2023/12/20 09:47:38;;;;;;;24.23;3.67;;;10.00;99.90;;;;;;4972915;28;35499;-78
2023/12/20 09:50:06;;;;;;;24.00;4.40;;;10.00;99.90;;;;;;4977201;28;38107;-80
2023/12/20 09:52:32;;;;;;;21.27;4.03;;;10.00;99.90;;;;;;4954967;28;47075;-78
2023/12/20 09:54:59;;;;;;;28.33;4.00;;;10.10;99.90;;;;;;4975146;28;37899;-78
2023/12/20 09:57:25;;;;;;;26.57;4.97;;;10.10;99.90;;;;;;4972555;28;36072;-79
2023/12/20 09:59:51;;;;;;;19.03;3.50;;;10.10;99.90;;;;;;4975229;28;38249;-79
2023/12/20 10:02:21;;;;;;;22.40;3.60;;;10.10;99.90;;;;;;4957912;28;37593;-78
2023/12/20 10:04:48;;;;;;;22.20;4.07;;;10.20;99.90;;;;;;4976974;28;37753;-77
2023/12/20 10:07:15;;;;;;;28.07;4.00;;;10.30;99.90;;;;;;4957527;28;35890;-77
2023/12/20 10:09:42;;;;;;;32.37;4.80;;;10.30;99.90;;;;;;4977257;28;38650;-77
2023/12/20 10:12:08;;;;;;;18.60;3.87;;;10.40;99.90;;;;;;4953933;28;37616;-78
2023/12/20 10:14:34;;;;;;;29.67;5.77;;;10.40;99.90;;;;;;4973347;28;38105;-78
2023/12/20 10:17:04;;;;;;;23.23;3.83;;;10.50;99.90;;;;;;4970544;28;33960;-77
2023/12/20 10:19:31;;;;;;;19.10;4.73;;;10.50;99.90;;;;;;4955540;28;47431;-79
2023/12/20 10:22:04;;;;;;;24.80;3.70;;;10.60;99.90;;;;;;4955481;28;37226;-78
2023/12/20 10:24:30;;;;;;;17.70;3.30;;;10.60;99.90;;;;;;4971606;28;48818;-78
2023/12/20 10:27:07;;;;;;;22.10;4.03;;;10.60;99.90;;;;;;4955951;28;36431;-79
2023/12/20 10:29:37;;;;;;;22.97;4.13;;;10.60;99.90;;;;;;4953364;28;47148;-77
2023/12/20 10:32:24;;;;;;;19.03;3.90;;;10.50;99.90;;;;;;4972423;28;39687;-79
2023/12/20 10:34:51;;;;;;;24.23;3.37;;;10.50;99.90;;;;;;4955709;28;37014;-79
2023/12/20 10:37:17;;;;;;;18.97;4.23;;;10.60;99.90;;;;;;4956372;28;37722;-78
2023/12/20 10:39:44;;;;;;;20.87;4.97;;;10.50;99.90;;;;;;4974193;28;38196;-79
2023/12/20 10:42:12;;;;;;;31.00;4.00;;;10.60;99.90;;;;;;4961957;28;37035;-79
2023/12/20 10:44:39;;;;;;;32.33;5.30;;;10.50;99.90;;;;;;4966591;28;38119;-77
2023/12/20 10:47:06;;;;;;;14.23;2.70;;;10.60;99.90;;;;;;4941495;28;36168;-79
2023/12/20 10:49:37;;;;;;;31.33;4.67;;;10.60;99.90;;;;;;4959248;28;39211;-78
2023/12/20 10:52:05;;;;;;;26.03;4.33;;;10.60;99.90;;;;;;4956932;28;37460;-78
2023/12/20 10:54:31;;;;;;;28.17;4.60;;;10.60;99.90;;;;;;4975667;28;38450;-78
2023/12/20 10:56:58;;;;;;;20.53;3.43;;;10.40;99.90;;;;;;4958314;28;37922;-79
2023/12/20 10:59:29;;;;;;;22.03;3.13;;;10.50;99.90;;;;;;4963847;28;38199;-79
2023/12/20 11:01:57;;;;;;;23.93;4.10;;;10.50;99.90;;;;;;4962028;28;38404;-79
2023/12/20 11:04:47;;;;;;;17.73;3.30;;;10.60;99.90;;;;;;4976959;28;37434;-78
2023/12/20 11:07:24;;;;;;;30.10;4.20;;;10.70;99.90;;;;;;4956283;28;39252;-78
2023/12/20 11:10:08;;;;;;;22.30;4.10;;;10.80;99.90;;;;;;4955561;28;39274;-78
2023/12/20 11:12:53;;;;;;;23.27;3.87;;;10.90;99.90;;;;;;4974177;28;47799;-78
2023/12/20 11:15:21;;;;;;;24.27;4.03;;;10.90;99.90;;;;;;4955507;28;38627;-79
2023/12/20 11:17:55;;;;;;;24.47;3.83;;;10.90;99.90;;;;;;4956894;28;36408;-78
2023/12/20 11:20:36;;;;;;;23.57;4.03;;;11.00;99.90;;;;;;4951974;28;38887;-76
2023/12/20 11:23:02;;;;;;;22.77;4.40;;;11.00;99.90;;;;;;4933577;28;38327;-79
2023/12/20 11:25:28;;;;;;;21.60;3.97;;;11.00;99.90;;;;;;4970990;28;47242;-79
2023/12/20 11:28:09;;;;;;;21.77;3.73;;;10.90;99.90;;;;;;4956912;28;35894;-77
2023/12/20 11:30:50;;;;;;;25.13;3.60;;;11.00;99.90;;;;;;4957478;28;48718;-77
2023/12/20 11:33:21;;;;;;;24.93;4.67;;;11.00;99.90;;;;;;4960306;28;37223;-77
2023/12/20 11:35:50;;;;;;;21.13;4.23;;;11.00;99.90;;;;;;4962238;28;37606;-77
2023/12/20 11:38:17;;;;;;;16.80;3.33;;;10.90;99.90;;;;;;4961321;28;37812;-77
2023/12/20 11:40:44;;;;;;;25.50;3.47;;;10.90;99.90;;;;;;4964355;28;38519;-77
2023/12/20 11:43:10;;;;;;;19.03;3.93;;;11.00;99.90;;;;;;4978442;28;38059;-77
2023/12/20 11:45:36;;;;;;;26.03;3.90;;;11.00;99.90;;;;;;4967015;28;38900;-76
2023/12/20 11:48:06;;;;;;;21.97;3.53;;;11.10;99.90;;;;;;4958849;28;35942;-77
2023/12/20 11:50:32;;;;;;;18.57;3.40;;;11.20;99.90;;;;;;4953862;28;38333;-77
2023/12/20 11:52:59;;;;;;;20.73;4.27;;;11.20;99.90;;;;;;4963635;28;36975;-78
2023/12/20 11:55:25;;;;;;;25.90;3.77;;;11.10;99.90;;;;;;4977759;28;37925;-78
2023/12/20 11:57:52;;;;;;;25.93;4.57;;;11.10;99.90;;;;;;4976755;28;37540;-77
2023/12/20 12:00:19;;;;;;;22.30;3.47;;;11.00;99.90;;;;;;4955969;28;36574;-79
2023/12/20 12:02:56;;;;;;;23.80;4.07;;;10.90;99.90;;;;;;4957157;28;38582;-78
2023/12/20 12:05:22;;;;;;;29.00;4.53;;;10.90;99.90;;;;;;4974976;28;37657;-78
2023/12/20 12:07:48;;;;;;;21.17;4.20;;;10.90;99.90;;;;;;4976914;28;36585;-79
2023/12/20 12:10:14;;;;;;;21.50;4.23;;;10.90;99.90;;;;;;4958549;28;40172;-79
2023/12/20 12:12:41;;;;;;;22.65;4.45;;;10.90;99.90;;;;;;4959088;28;37273;-79
2023/12/20 12:15:08;;;;;;;20.77;3.70;;;10.90;99.90;;;;;;4958923;28;37474;-78
2023/12/20 12:17:34;;;;;;;26.10;3.80;;;11.00;99.90;;;;;;4952581;28;36151;-79
2023/12/20 12:20:06;;;;;;;24.63;3.90;;;10.90;99.90;;;;;;4980292;28;41172;-79
2023/12/20 12:22:32;;;;;;;19.30;3.77;;;10.90;99.90;;;;;;4941626;28;46785;-78
2023/12/20 12:25:09;;;;;;;23.27;3.97;;;11.00;99.90;;;;;;4978337;28;37429;-79
2023/12/20 12:27:35;;;;;;;19.13;4.47;;;10.90;99.90;;;;;;4960445;28;47073;-77
2023/12/20 12:30:03;;;;;;;19.60;4.17;;;10.90;99.90;;;;;;4978335;28;39555;-80
2023/12/20 12:32:29;;;;;;;24.13;3.63;;;10.80;99.90;;;;;;4963845;28;48126;-77
2023/12/20 12:34:56;;;;;;;24.87;3.87;;;10.80;99.90;;;;;;4952999;28;36960;-78
2023/12/20 12:37:24;;;;;;;18.60;3.67;;;10.80;99.90;;;;;;4958138;28;35854;-78
2023/12/20 12:39:53;;;;;;;25.87;3.77;;;10.90;99.90;;;;;;4969900;28;38122;-77
2023/12/20 12:42:19;;;;;;;20.43;3.90;;;10.90;99.90;;;;;;4951293;28;37418;-77
2023/12/20 12:44:45;;;;;;;27.73;4.47;;;10.90;99.90;;;;;;4966428;28;36864;-77
2023/12/20 12:47:11;;;;;;;23.10;3.17;;;10.80;99.90;;;;;;4951012;28;37011;-77
2023/12/20 12:49:37;;;;;;;24.47;4.73;;;10.80;99.90;;;;;;4974778;28;38801;-78
2023/12/20 12:52:04;;;;;;;21.87;3.77;;;10.80;99.90;;;;;;4972987;28;39750;-78
2023/12/20 12:54:30;;;;;;;22.20;3.70;;;10.80;99.90;;;;;;4966212;28;37265;-78
2023/12/20 12:56:58;;;;;;;19.47;3.67;;;10.80;99.90;;;;;;4972245;28;36400;-78
2023/12/20 12:59:24;;;;;;;19.57;4.60;;;10.80;99.90;;;;;;4968902;28;40191;-77